sensor_id;sensor_type;location;lat;lon;timestamp;P1;durP1;ratioP1;P2;durP2;ratioP2
13386;SDS011;6763;48.524;9.044;2023-01-13T00:02:23;1.10;;;0.63;;
13386;SDS011;6763;48.524;9.044;2023-01-13T00:04:48;0.30;;;0.30;;
13386;SDS011;6763;48.524;9.044;2023-01-13T00:07:14;0.40;;;0.40;;
13386;SDS011;6763;48.524;9.044;2023-01-13T00:09:39;0.35;;;0.35;;
13386;SDS011;6763;48.524;9.044;2023-01-13T00:12:04;1.35;;;0.30;;
13386;SDS011;6763;48.524;9.044;2023-01-13T00:14:37;0.40;;;0.40;;
13386;SDS011;6763;48.524;9.044;2023-01-13T00:17:02;1.08;;;0.40;;
13386;SDS011;6763;48.524;9.044;2023-01-13T00:19:28;0.43;;;0.40;;
13386;SDS011;6763;48.524;9.044;2023-01-13T00:21:53;0.30;;;0.30;;
13386;SDS011;6763;48.524;9.044;2023-01-13T00:24:19;0.30;;;0.30;;
13386;SDS011;6763;48.524;9.044;2023-01-13T00:26:47;0.40;;;0.40;;
13386;SDS011;6763;48.524;9.044;2023-01-13T00:29:13;0.30;;;0.30;;
13386;SDS011;6763;48.524;9.044;2023-01-13T00:31:38;1.65;;;0.43;;
13386;SDS011;6763;48.524;9.044;2023-01-13T00:34:03;0.40;;;0.40;;
13386;SDS011;6763;48.524;9.044;2023-01-13T00:36:29;0.50;;;0.50;;
13386;SDS011;6763;48.524;9.044;2023-01-13T00:38:55;0.30;;;0.30;;
13386;SDS011;6763;48.524;9.044;2023-01-13T00:41:22;0.65;;;0.40;;
13386;SDS011;6763;48.524;9.044;2023-01-13T00:43:49;1.45;;;0.40;;
13386;SDS011;6763;48.524;9.044;2023-01-13T00:46:16;3.13;;;0.40;;
13386;SDS011;6763;48.524;9.044;2023-01-13T00:48:43;0.52;;;0.30;;
13386;SDS011;6763;48.524;9.044;2023-01-13T00:53:40;0.30;;;0.30;;
13386;SDS011;6763;48.524;9.044;2023-01-13T00:56:18;0.30;;;0.30;;
13386;SDS011;6763;48.524;9.044;2023-01-13T00:58:49;0.93;;;0.40;;
13386;SDS011;6763;48.524;9.044;2023-01-13T01:01:17;1.27;;;0.55;;
13386;SDS011;6763;48.524;9.044;2023-01-13T01:03:51;0.40;;;0.40;;
13386;SDS011;6763;48.524;9.044;2023-01-13T01:06:19;0.30;;;0.30;;
13386;SDS011;6763;48.524;9.044;2023-01-13T01:08:46;0.55;;;0.40;;
13386;SDS011;6763;48.524;9.044;2023-01-13T01:11:13;0.45;;;0.45;;
13386;SDS011;6763;48.524;9.044;2023-01-13T01:13:40;0.30;;;0.30;;
13386;SDS011;6763;48.524;9.044;2023-01-13T01:16:07;0.30;;;0.30;;
13386;SDS011;6763;48.524;9.044;2023-01-13T01:18:39;0.30;;;0.30;;
13386;SDS011;6763;48.524;9.044;2023-01-13T01:21:06;0.30;;;0.30;;
13386;SDS011;6763;48.524;9.044;2023-01-13T01:23:32;0.20;;;0.20;;
13386;SDS011;6763;48.524;9.044;2023-01-13T01:25:59;0.40;;;0.40;;
13386;SDS011;6763;48.524;9.044;2023-01-13T01:28:25;0.20;;;0.20;;
13386;SDS011;6763;48.524;9.044;2023-01-13T01:30:50;0.38;;;0.38;;
13386;SDS011;6763;48.524;9.044;2023-01-13T01:33:15;2.05;;;0.35;;
13386;SDS011;6763;48.524;9.044;2023-01-13T01:35:41;0.30;;;0.30;;
13386;SDS011;6763;48.524;9.044;2023-01-13T01:38:06;0.40;;;0.40;;
13386;SDS011;6763;48.524;9.044;2023-01-13T01:40:32;0.40;;;0.40;;
13386;SDS011;6763;48.524;9.044;2023-01-13T01:42:57;0.35;;;0.30;;
13386;SDS011;6763;48.524;9.044;2023-01-13T01:45:41;2.28;;;0.40;;
13386;SDS011;6763;48.524;9.044;2023-01-13T01:48:07;0.35;;;0.35;;
13386;SDS011;6763;48.524;9.044;2023-01-13T01:50:33;0.30;;;0.30;;
13386;SDS011;6763;48.524;9.044;2023-01-13T01:53:01;0.52;;;0.52;;
13386;SDS011;6763;48.524;9.044;2023-01-13T01:55:34;0.40;;;0.40;;
13386;SDS011;6763;48.524;9.044;2023-01-13T01:58:05;0.63;;;0.50;;
13386;SDS011;6763;48.524;9.044;2023-01-13T02:00:37;0.40;;;0.40;;
13386;SDS011;6763;48.524;9.044;2023-01-13T02:03:03;0.70;;;0.40;;
13386;SDS011;6763;48.524;9.044;2023-01-13T02:05:30;0.40;;;0.40;;
13386;SDS011;6763;48.524;9.044;2023-01-13T02:07:56;0.52;;;0.50;;
13386;SDS011;6763;48.524;9.044;2023-01-13T02:10:24;0.35;;;0.35;;
13386;SDS011;6763;48.524;9.044;2023-01-13T02:12:52;0.40;;;0.40;;
13386;SDS011;6763;48.524;9.044;2023-01-13T02:15:25;1.65;;;0.40;;
13386;SDS011;6763;48.524;9.044;2023-01-13T02:31:59;0.55;;;0.55;;
13386;SDS011;6763;48.524;9.044;2023-01-13T02:34:41;0.28;;;0.28;;
13386;SDS011;6763;48.524;9.044;2023-01-13T02:37:13;0.40;;;0.40;;
13386;SDS011;6763;48.524;9.044;2023-01-13T02:39:47;0.32;;;0.32;;
13386;SDS011;6763;48.524;9.044;2023-01-13T02:42:24;0.30;;;0.30;;
13386;SDS011;6763;48.524;9.044;2023-01-13T02:45:12;1.13;;;0.68;;
13386;SDS011;6763;48.524;9.044;2023-01-13T02:47:43;0.68;;;0.38;;
13386;SDS011;6763;48.524;9.044;2023-01-13T02:50:15;0.70;;;0.70;;
13386;SDS011;6763;48.524;9.044;2023-01-13T02:52:44;0.30;;;0.30;;
13386;SDS011;6763;48.524;9.044;2023-01-13T02:55:17;0.40;;;0.40;;
13386;SDS011;6763;48.524;9.044;2023-01-13T02:57:55;0.57;;;0.57;;
13386;SDS011;6763;48.524;9.044;2023-01-13T03:00:23;0.40;;;0.40;;
13386;SDS011;6763;48.524;9.044;2023-01-13T03:02:50;0.55;;;0.50;;
13386;SDS011;6763;48.524;9.044;2023-01-13T03:05:16;0.30;;;0.30;;
13386;SDS011;6763;48.524;9.044;2023-01-13T03:16:34;0.82;;;0.82;;
13386;SDS011;6763;48.524;9.044;2023-01-13T03:21:43;0.20;;;0.20;;
13386;SDS011;6763;48.524;9.044;2023-01-13T03:24:19;0.30;;;0.30;;
13386;SDS011;6763;48.524;9.044;2023-01-13T03:29:26;2.22;;;0.38;;
13386;SDS011;6763;48.524;9.044;2023-01-13T03:32:00;2.35;;;0.50;;
13386;SDS011;6763;48.524;9.044;2023-01-13T03:34:32;0.30;;;0.30;;
13386;SDS011;6763;48.524;9.044;2023-01-13T03:37:04;0.30;;;0.30;;
13386;SDS011;6763;48.524;9.044;2023-01-13T03:39:33;0.30;;;0.30;;
13386;SDS011;6763;48.524;9.044;2023-01-13T03:42:04;0.30;;;0.30;;
13386;SDS011;6763;48.524;9.044;2023-01-13T03:47:27;0.38;;;0.30;;
13386;SDS011;6763;48.524;9.044;2023-01-13T03:50:09;0.32;;;0.32;;
13386;SDS011;6763;48.524;9.044;2023-01-13T03:52:36;0.30;;;0.30;;
13386;SDS011;6763;48.524;9.044;2023-01-13T03:55:12;0.52;;;0.40;;
13386;SDS011;6763;48.524;9.044;2023-01-13T03:57:41;0.30;;;0.30;;
13386;SDS011;6763;48.524;9.044;2023-01-13T04:00:13;0.30;;;0.30;;
13386;SDS011;6763;48.524;9.044;2023-01-13T04:02:50;0.30;;;0.30;;
13386;SDS011;6763;48.524;9.044;2023-01-13T04:05:29;0.30;;;0.30;;
13386;SDS011;6763;48.524;9.044;2023-01-13T04:10:44;0.30;;;0.30;;
13386;SDS011;6763;48.524;9.044;2023-01-13T04:13:18;0.40;;;0.40;;
13386;SDS011;6763;48.524;9.044;2023-01-13T04:15:47;0.40;;;0.40;;
13386;SDS011;6763;48.524;9.044;2023-01-13T04:18:17;0.35;;;0.35;;
13386;SDS011;6763;48.524;9.044;2023-01-13T04:20:47;0.30;;;0.30;;
13386;SDS011;6763;48.524;9.044;2023-01-13T04:23:14;0.30;;;0.30;;
13386;SDS011;6763;48.524;9.044;2023-01-13T04:25:40;0.30;;;0.30;;
13386;SDS011;6763;48.524;9.044;2023-01-13T04:28:06;0.40;;;0.40;;
13386;SDS011;6763;48.524;9.044;2023-01-13T04:30:32;0.30;;;0.30;;
13386;SDS011;6763;48.524;9.044;2023-01-13T04:32:57;0.40;;;0.40;;
13386;SDS011;6763;48.524;9.044;2023-01-13T04:35:23;0.40;;;0.40;;
13386;SDS011;6763;48.524;9.044;2023-01-13T04:37:48;0.40;;;0.40;;
13386;SDS011;6763;48.524;9.044;2023-01-13T04:40:13;0.30;;;0.30;;
13386;SDS011;6763;48.524;9.044;2023-01-13T04:42:39;0.20;;;0.20;;
13386;SDS011;6763;48.524;9.044;2023-01-13T04:45:05;0.30;;;0.30;;
13386;SDS011;6763;48.524;9.044;2023-01-13T04:47:31;0.30;;;0.30;;
13386;SDS011;6763;48.524;9.044;2023-01-13T04:49:56;0.40;;;0.40;;
13386;SDS011;6763;48.524;9.044;2023-01-13T04:52:21;0.40;;;0.40;;
13386;SDS011;6763;48.524;9.044;2023-01-13T04:54:47;0.30;;;0.30;;
13386;SDS011;6763;48.524;9.044;2023-01-13T04:57:12;0.75;;;0.30;;
13386;SDS011;6763;48.524;9.044;2023-01-13T04:59:37;0.40;;;0.40;;
13386;SDS011;6763;48.524;9.044;2023-01-13T05:02:03;0.30;;;0.30;;
13386;SDS011;6763;48.524;9.044;2023-01-13T05:04:28;0.40;;;0.40;;
13386;SDS011;6763;48.524;9.044;2023-01-13T05:06:54;0.30;;;0.30;;
13386;SDS011;6763;48.524;9.044;2023-01-13T05:09:19;0.38;;;0.38;;
13386;SDS011;6763;48.524;9.044;2023-01-13T05:11:44;0.38;;;0.38;;
13386;SDS011;6763;48.524;9.044;2023-01-13T05:14:31;0.30;;;0.30;;
13386;SDS011;6763;48.524;9.044;2023-01-13T05:17:19;0.35;;;0.35;;
13386;SDS011;6763;48.524;9.044;2023-01-13T05:19:46;0.40;;;0.40;;
13386;SDS011;6763;48.524;9.044;2023-01-13T05:22:12;0.30;;;0.30;;
13386;SDS011;6763;48.524;9.044;2023-01-13T05:24:56;0.30;;;0.30;;
13386;SDS011;6763;48.524;9.044;2023-01-13T05:27:40;0.40;;;0.40;;
13386;SDS011;6763;48.524;9.044;2023-01-13T05:30:05;0.40;;;0.40;;
13386;SDS011;6763;48.524;9.044;2023-01-13T05:32:31;0.30;;;0.30;;
13386;SDS011;6763;48.524;9.044;2023-01-13T05:34:57;0.40;;;0.40;;
13386;SDS011;6763;48.524;9.044;2023-01-13T05:37:22;0.30;;;0.30;;
13386;SDS011;6763;48.524;9.044;2023-01-13T05:39:48;1.30;;;0.40;;
13386;SDS011;6763;48.524;9.044;2023-01-13T05:42:32;0.28;;;0.28;;
13386;SDS011;6763;48.524;9.044;2023-01-13T05:45:16;0.40;;;0.40;;
13386;SDS011;6763;48.524;9.044;2023-01-13T05:47:41;1.50;;;0.55;;
13386;SDS011;6763;48.524;9.044;2023-01-13T05:50:07;0.38;;;0.38;;
13386;SDS011;6763;48.524;9.044;2023-01-13T05:52:33;0.40;;;0.40;;
13386;SDS011;6763;48.524;9.044;2023-01-13T05:54:58;0.30;;;0.30;;
13386;SDS011;6763;48.524;9.044;2023-01-13T05:57:24;0.63;;;0.40;;
13386;SDS011;6763;48.524;9.044;2023-01-13T05:59:49;0.30;;;0.30;;
13386;SDS011;6763;48.524;9.044;2023-01-13T06:02:14;0.30;;;0.30;;
13386;SDS011;6763;48.524;9.044;2023-01-13T06:04:40;0.30;;;0.30;;
13386;SDS011;6763;48.524;9.044;2023-01-13T06:07:05;0.30;;;0.30;;
13386;SDS011;6763;48.524;9.044;2023-01-13T06:09:30;1.05;;;0.50;;
13386;SDS011;6763;48.524;9.044;2023-01-13T06:11:56;0.38;;;0.38;;
13386;SDS011;6763;48.524;9.044;2023-01-13T06:14:21;0.40;;;0.40;;
13386;SDS011;6763;48.524;9.044;2023-01-13T06:16:47;0.40;;;0.40;;
13386;SDS011;6763;48.524;9.044;2023-01-13T06:19:12;0.32;;;0.32;;
13386;SDS011;6763;48.524;9.044;2023-01-13T06:21:38;0.40;;;0.40;;
13386;SDS011;6763;48.524;9.044;2023-01-13T06:24:07;0.30;;;0.30;;
13386;SDS011;6763;48.524;9.044;2023-01-13T06:26:35;0.73;;;0.73;;
13386;SDS011;6763;48.524;9.044;2023-01-13T06:29:02;0.38;;;0.38;;
13386;SDS011;6763;48.524;9.044;2023-01-13T06:31:28;0.50;;;0.50;;
13386;SDS011;6763;48.524;9.044;2023-01-13T06:33:56;0.40;;;0.40;;
13386;SDS011;6763;48.524;9.044;2023-01-13T06:36:33;0.30;;;0.30;;
13386;SDS011;6763;48.524;9.044;2023-01-13T06:39:02;0.30;;;0.30;;
13386;SDS011;6763;48.524;9.044;2023-01-13T06:41:29;1.05;;;0.40;;
13386;SDS011;6763;48.524;9.044;2023-01-13T06:44:15;0.43;;;0.43;;
13386;SDS011;6763;48.524;9.044;2023-01-13T06:46:42;0.52;;;0.52;;
13386;SDS011;6763;48.524;9.044;2023-01-13T06:49:08;0.60;;;0.60;;
13386;SDS011;6763;48.524;9.044;2023-01-13T06:51:33;0.47;;;0.47;;
13386;SDS011;6763;48.524;9.044;2023-01-13T06:53:59;0.95;;;0.50;;
13386;SDS011;6763;48.524;9.044;2023-01-13T06:56:24;1.20;;;0.63;;
13386;SDS011;6763;48.524;9.044;2023-01-13T06:58:49;1.25;;;0.50;;
13386;SDS011;6763;48.524;9.044;2023-01-13T07:01:14;0.88;;;0.30;;
13386;SDS011;6763;48.524;9.044;2023-01-13T07:03:40;0.40;;;0.40;;
13386;SDS011;6763;48.524;9.044;2023-01-13T07:06:05;0.40;;;0.40;;
13386;SDS011;6763;48.524;9.044;2023-01-13T07:08:31;0.30;;;0.30;;
13386;SDS011;6763;48.524;9.044;2023-01-13T07:10:56;0.57;;;0.40;;
13386;SDS011;6763;48.524;9.044;2023-01-13T07:13:22;0.40;;;0.40;;
13386;SDS011;6763;48.524;9.044;2023-01-13T07:16:06;0.38;;;0.38;;
13386;SDS011;6763;48.524;9.044;2023-01-13T07:18:32;0.30;;;0.30;;
13386;SDS011;6763;48.524;9.044;2023-01-13T07:21:00;0.32;;;0.32;;
13386;SDS011;6763;48.524;9.044;2023-01-13T07:23:28;0.43;;;0.43;;
13386;SDS011;6763;48.524;9.044;2023-01-13T07:25:55;0.32;;;0.32;;
13386;SDS011;6763;48.524;9.044;2023-01-13T07:28:22;0.32;;;0.32;;
13386;SDS011;6763;48.524;9.044;2023-01-13T07:30:52;0.45;;;0.45;;
13386;SDS011;6763;48.524;9.044;2023-01-13T07:33:17;0.40;;;0.40;;
13386;SDS011;6763;48.524;9.044;2023-01-13T07:35:43;0.30;;;0.30;;
13386;SDS011;6763;48.524;9.044;2023-01-13T07:38:09;0.40;;;0.40;;
13386;SDS011;6763;48.524;9.044;2023-01-13T07:40:35;0.35;;;0.35;;
13386;SDS011;6763;48.524;9.044;2023-01-13T07:43:01;0.40;;;0.40;;
13386;SDS011;6763;48.524;9.044;2023-01-13T07:45:45;0.30;;;0.30;;
13386;SDS011;6763;48.524;9.044;2023-01-13T07:48:10;0.30;;;0.30;;
13386;SDS011;6763;48.524;9.044;2023-01-13T07:50:36;0.43;;;0.35;;
13386;SDS011;6763;48.524;9.044;2023-01-13T07:53:01;0.40;;;0.40;;
13386;SDS011;6763;48.524;9.044;2023-01-13T07:55:27;0.32;;;0.32;;
13386;SDS011;6763;48.524;9.044;2023-01-13T07:57:52;0.30;;;0.30;;
13386;SDS011;6763;48.524;9.044;2023-01-13T08:00:18;0.30;;;0.30;;
13386;SDS011;6763;48.524;9.044;2023-01-13T08:02:43;0.90;;;0.43;;
13386;SDS011;6763;48.524;9.044;2023-01-13T08:05:09;0.32;;;0.32;;
13386;SDS011;6763;48.524;9.044;2023-01-13T08:07:34;0.40;;;0.40;;
13386;SDS011;6763;48.524;9.044;2023-01-13T08:10:00;0.50;;;0.50;;
13386;SDS011;6763;48.524;9.044;2023-01-13T08:12:26;0.35;;;0.35;;
13386;SDS011;6763;48.524;9.044;2023-01-13T08:15:11;0.43;;;0.40;;
13386;SDS011;6763;48.524;9.044;2023-01-13T08:17:36;0.30;;;0.30;;
13386;SDS011;6763;48.524;9.044;2023-01-13T08:20:04;0.40;;;0.40;;
13386;SDS011;6763;48.524;9.044;2023-01-13T08:22:30;1.77;;;0.85;;
13386;SDS011;6763;48.524;9.044;2023-01-13T08:24:57;0.35;;;0.35;;
13386;SDS011;6763;48.524;9.044;2023-01-13T08:27:23;1.05;;;0.60;;
13386;SDS011;6763;48.524;9.044;2023-01-13T08:29:49;0.30;;;0.30;;
13386;SDS011;6763;48.524;9.044;2023-01-13T08:32:14;0.40;;;0.40;;
13386;SDS011;6763;48.524;9.044;2023-01-13T08:34:39;0.45;;;0.45;;
13386;SDS011;6763;48.524;9.044;2023-01-13T08:37:05;0.40;;;0.40;;
13386;SDS011;6763;48.524;9.044;2023-01-13T08:39:30;0.32;;;0.32;;
13386;SDS011;6763;48.524;9.044;2023-01-13T08:41:55;0.50;;;0.50;;
13386;SDS011;6763;48.524;9.044;2023-01-13T08:44:22;0.43;;;0.43;;
13386;SDS011;6763;48.524;9.044;2023-01-13T08:46:52;0.50;;;0.50;;
13386;SDS011;6763;48.524;9.044;2023-01-13T08:49:18;0.45;;;0.45;;
13386;SDS011;6763;48.524;9.044;2023-01-13T08:51:44;0.47;;;0.47;;
13386;SDS011;6763;48.524;9.044;2023-01-13T08:54:09;0.40;;;0.40;;
13386;SDS011;6763;48.524;9.044;2023-01-13T08:56:35;0.50;;;0.50;;
13386;SDS011;6763;48.524;9.044;2023-01-13T08:59:01;0.40;;;0.40;;
13386;SDS011;6763;48.524;9.044;2023-01-13T09:01:26;0.50;;;0.50;;
13386;SDS011;6763;48.524;9.044;2023-01-13T09:03:52;0.55;;;0.55;;
13386;SDS011;6763;48.524;9.044;2023-01-13T09:06:18;5.90;;;1.90;;
13386;SDS011;6763;48.524;9.044;2023-01-13T09:08:44;4.70;;;2.30;;
13386;SDS011;6763;48.524;9.044;2023-01-13T09:11:17;0.80;;;0.80;;
13386;SDS011;6763;48.524;9.044;2023-01-13T09:14:02;0.40;;;0.40;;
13386;SDS011;6763;48.524;9.044;2023-01-13T09:16:28;0.32;;;0.32;;
13386;SDS011;6763;48.524;9.044;2023-01-13T09:18:53;0.60;;;0.60;;
13386;SDS011;6763;48.524;9.044;2023-01-13T09:21:19;0.40;;;0.40;;
13386;SDS011;6763;48.524;9.044;2023-01-13T09:23:45;0.30;;;0.30;;
13386;SDS011;6763;48.524;9.044;2023-01-13T09:26:10;0.70;;;0.70;;
13386;SDS011;6763;48.524;9.044;2023-01-13T09:28:38;0.40;;;0.40;;
13386;SDS011;6763;48.524;9.044;2023-01-13T09:31:04;0.40;;;0.40;;
13386;SDS011;6763;48.524;9.044;2023-01-13T09:33:29;2.70;;;0.50;;
13386;SDS011;6763;48.524;9.044;2023-01-13T09:36:13;0.30;;;0.30;;
13386;SDS011;6763;48.524;9.044;2023-01-13T09:38:38;0.30;;;0.30;;
13386;SDS011;6763;48.524;9.044;2023-01-13T09:41:04;0.30;;;0.30;;
13386;SDS011;6763;48.524;9.044;2023-01-13T09:43:50;1.30;;;0.40;;
13386;SDS011;6763;48.524;9.044;2023-01-13T09:46:21;0.40;;;0.40;;
13386;SDS011;6763;48.524;9.044;2023-01-13T09:52:17;0.43;;;0.40;;
13386;SDS011;6763;48.524;9.044;2023-01-13T09:54:54;0.40;;;0.40;;
13386;SDS011;6763;48.524;9.044;2023-01-13T09:57:34;0.40;;;0.40;;
13386;SDS011;6763;48.524;9.044;2023-01-13T10:00:12;0.40;;;0.40;;
13386;SDS011;6763;48.524;9.044;2023-01-13T10:02:53;0.30;;;0.30;;
13386;SDS011;6763;48.524;9.044;2023-01-13T10:05:33;0.40;;;0.40;;
13386;SDS011;6763;48.524;9.044;2023-01-13T10:08:34;0.40;;;0.40;;
13386;SDS011;6763;48.524;9.044;2023-01-13T10:10:58;0.47;;;0.47;;
13386;SDS011;6763;48.524;9.044;2023-01-13T10:13:47;0.40;;;0.40;;
13386;SDS011;6763;48.524;9.044;2023-01-13T10:19:04;0.50;;;0.50;;
13386;SDS011;6763;48.524;9.044;2023-01-13T10:27:38;0.40;;;0.40;;
13386;SDS011;6763;48.524;9.044;2023-01-13T10:30:14;0.30;;;0.30;;
13386;SDS011;6763;48.524;9.044;2023-01-13T10:32:42;0.43;;;0.43;;
13386;SDS011;6763;48.524;9.044;2023-01-13T10:35:10;0.40;;;0.40;;
13386;SDS011;6763;48.524;9.044;2023-01-13T10:37:35;0.30;;;0.30;;
13386;SDS011;6763;48.524;9.044;2023-01-13T10:40:01;0.30;;;0.30;;
13386;SDS011;6763;48.524;9.044;2023-01-13T10:42:27;0.43;;;0.40;;
13386;SDS011;6763;48.524;9.044;2023-01-13T10:47:34;0.40;;;0.40;;
13386;SDS011;6763;48.524;9.044;2023-01-13T10:50:03;0.50;;;0.40;;
13386;SDS011;6763;48.524;9.044;2023-01-13T10:52:58;0.45;;;0.45;;
13386;SDS011;6763;48.524;9.044;2023-01-13T10:57:58;0.30;;;0.30;;
13386;SDS011;6763;48.524;9.044;2023-01-13T11:00:36;0.43;;;0.43;;
13386;SDS011;6763;48.524;9.044;2023-01-13T11:05:39;0.30;;;0.30;;
13386;SDS011;6763;48.524;9.044;2023-01-13T11:08:18;0.40;;;0.40;;
13386;SDS011;6763;48.524;9.044;2023-01-13T11:10:50;0.38;;;0.38;;
13386;SDS011;6763;48.524;9.044;2023-01-13T11:13:39;0.30;;;0.30;;
13386;SDS011;6763;48.524;9.044;2023-01-13T11:16:25;0.40;;;0.40;;
13386;SDS011;6763;48.524;9.044;2023-01-13T11:18:53;0.30;;;0.30;;
13386;SDS011;6763;48.524;9.044;2023-01-13T11:29:29;0.50;;;0.50;;
13386;SDS011;6763;48.524;9.044;2023-01-13T11:32:13;1.27;;;0.95;;
13386;SDS011;6763;48.524;9.044;2023-01-13T11:34:43;0.30;;;0.30;;
13386;SDS011;6763;48.524;9.044;2023-01-13T11:37:20;0.45;;;0.45;;
13386;SDS011;6763;48.524;9.044;2023-01-13T11:42:54;0.40;;;0.40;;
13386;SDS011;6763;48.524;9.044;2023-01-13T11:45:40;0.40;;;0.40;;
13386;SDS011;6763;48.524;9.044;2023-01-13T11:48:11;0.40;;;0.40;;
13386;SDS011;6763;48.524;9.044;2023-01-13T11:50:41;0.63;;;0.60;;
13386;SDS011;6763;48.524;9.044;2023-01-13T12:10:52;0.40;;;0.40;;
13386;SDS011;6763;48.524;9.044;2023-01-13T12:13:58;0.60;;;0.60;;
13386;SDS011;6763;48.524;9.044;2023-01-13T12:16:35;0.50;;;0.50;;
13386;SDS011;6763;48.524;9.044;2023-01-13T12:19:17;0.40;;;0.40;;
13386;SDS011;6763;48.524;9.044;2023-01-13T12:24:30;0.32;;;0.32;;
13386;SDS011;6763;48.524;9.044;2023-01-13T12:27:04;0.30;;;0.30;;
13386;SDS011;6763;48.524;9.044;2023-01-13T12:29:43;0.77;;;0.77;;
13386;SDS011;6763;48.524;9.044;2023-01-13T12:32:16;3.10;;;0.60;;
13386;SDS011;6763;48.524;9.044;2023-01-13T12:40:24;0.80;;;0.65;;
13386;SDS011;6763;48.524;9.044;2023-01-13T12:43:21;0.45;;;0.45;;
13386;SDS011;6763;48.524;9.044;2023-01-13T12:51:26;0.90;;;0.90;;
13386;SDS011;6763;48.524;9.044;2023-01-13T12:53:57;0.40;;;0.40;;
13386;SDS011;6763;48.524;9.044;2023-01-13T12:58:48;0.55;;;0.50;;
13386;SDS011;6763;48.524;9.044;2023-01-13T13:01:14;0.85;;;0.50;;
13386;SDS011;6763;48.524;9.044;2023-01-13T13:03:40;1.30;;;0.50;;
13386;SDS011;6763;48.524;9.044;2023-01-13T13:06:12;0.32;;;0.32;;
13386;SDS011;6763;48.524;9.044;2023-01-13T13:19:53;0.82;;;0.65;;
13386;SDS011;6763;48.524;9.044;2023-01-13T13:41:13;0.52;;;0.50;;
13386;SDS011;6763;48.524;9.044;2023-01-13T13:44:06;1.48;;;0.60;;
13386;SDS011;6763;48.524;9.044;2023-01-13T13:47:03;1.08;;;0.60;;
13386;SDS011;6763;48.524;9.044;2023-01-13T13:49:38;3.80;;;0.88;;
13386;SDS011;6763;48.524;9.044;2023-01-13T13:52:07;0.47;;;0.47;;
13386;SDS011;6763;48.524;9.044;2023-01-13T13:54:40;1.17;;;0.73;;
13386;SDS011;6763;48.524;9.044;2023-01-13T13:57:29;1.65;;;0.57;;
13386;SDS011;6763;48.524;9.044;2023-01-13T13:59:58;0.40;;;0.40;;
13386;SDS011;6763;48.524;9.044;2023-01-13T14:02:28;1.15;;;0.70;;
13386;SDS011;6763;48.524;9.044;2023-01-13T14:05:05;1.65;;;0.50;;
13386;SDS011;6763;48.524;9.044;2023-01-13T14:07:42;0.65;;;0.50;;
13386;SDS011;6763;48.524;9.044;2023-01-13T14:10:23;0.80;;;0.52;;
13386;SDS011;6763;48.524;9.044;2023-01-13T14:12:52;0.47;;;0.47;;
13386;SDS011;6763;48.524;9.044;2023-01-13T14:15:36;0.40;;;0.40;;
13386;SDS011;6763;48.524;9.044;2023-01-13T14:18:04;1.65;;;0.70;;
13386;SDS011;6763;48.524;9.044;2023-01-13T14:20:34;0.50;;;0.50;;
13386;SDS011;6763;48.524;9.044;2023-01-13T14:23:01;0.40;;;0.40;;
13386;SDS011;6763;48.524;9.044;2023-01-13T14:25:36;0.40;;;0.40;;
13386;SDS011;6763;48.524;9.044;2023-01-13T14:30:49;0.75;;;0.40;;
13386;SDS011;6763;48.524;9.044;2023-01-13T14:33:16;0.73;;;0.50;;
13386;SDS011;6763;48.524;9.044;2023-01-13T14:36:05;0.50;;;0.50;;
13386;SDS011;6763;48.524;9.044;2023-01-13T14:38:31;0.60;;;0.57;;
13386;SDS011;6763;48.524;9.044;2023-01-13T14:40:56;1.30;;;0.80;;
13386;SDS011;6763;48.524;9.044;2023-01-13T14:43:32;0.50;;;0.50;;
13386;SDS011;6763;48.524;9.044;2023-01-13T14:45:59;1.50;;;0.73;;
13386;SDS011;6763;48.524;9.044;2023-01-13T14:48:31;1.52;;;0.60;;
13386;SDS011;6763;48.524;9.044;2023-01-13T14:51:00;0.30;;;0.30;;
13386;SDS011;6763;48.524;9.044;2023-01-13T15:01:58;0.30;;;0.30;;
13386;SDS011;6763;48.524;9.044;2023-01-13T15:04:25;3.33;;;0.60;;
13386;SDS011;6763;48.524;9.044;2023-01-13T15:06:55;1.38;;;0.90;;
13386;SDS011;6763;48.524;9.044;2023-01-13T15:09:24;0.98;;;0.80;;
13386;SDS011;6763;48.524;9.044;2023-01-13T15:11:52;1.45;;;0.98;;
13386;SDS011;6763;48.524;9.044;2023-01-13T15:14:19;1.33;;;0.65;;
13386;SDS011;6763;48.524;9.044;2023-01-13T15:16:49;0.77;;;0.77;;
13386;SDS011;6763;48.524;9.044;2023-01-13T15:19:15;0.40;;;0.40;;
13386;SDS011;6763;48.524;9.044;2023-01-13T15:21:40;0.73;;;0.55;;
13386;SDS011;6763;48.524;9.044;2023-01-13T15:24:05;1.98;;;0.52;;
13386;SDS011;6763;48.524;9.044;2023-01-13T15:26:31;4.40;;;0.68;;
13386;SDS011;6763;48.524;9.044;2023-01-13T15:28:58;1.13;;;0.60;;
13386;SDS011;6763;48.524;9.044;2023-01-13T15:31:25;1.27;;;0.60;;
13386;SDS011;6763;48.524;9.044;2023-01-13T15:33:51;0.60;;;0.60;;
13386;SDS011;6763;48.524;9.044;2023-01-13T15:36:25;0.57;;;0.57;;
13386;SDS011;6763;48.524;9.044;2023-01-13T15:38:55;1.38;;;0.52;;
13386;SDS011;6763;48.524;9.044;2023-01-13T15:41:21;0.50;;;0.50;;
13386;SDS011;6763;48.524;9.044;2023-01-13T15:44:07;0.75;;;0.63;;
13386;SDS011;6763;48.524;9.044;2023-01-13T15:46:53;1.83;;;0.77;;
13386;SDS011;6763;48.524;9.044;2023-01-13T15:51:51;0.60;;;0.60;;
13386;SDS011;6763;48.524;9.044;2023-01-13T15:54:17;1.48;;;0.77;;
13386;SDS011;6763;48.524;9.044;2023-01-13T15:56:46;0.63;;;0.63;;
13386;SDS011;6763;48.524;9.044;2023-01-13T15:59:16;1.63;;;0.90;;
13386;SDS011;6763;48.524;9.044;2023-01-13T16:01:45;0.88;;;0.88;;
13386;SDS011;6763;48.524;9.044;2023-01-13T16:04:10;1.02;;;0.80;;
13386;SDS011;6763;48.524;9.044;2023-01-13T16:06:36;1.60;;;0.73;;
13386;SDS011;6763;48.524;9.044;2023-01-13T16:09:02;2.75;;;0.60;;
13386;SDS011;6763;48.524;9.044;2023-01-13T16:11:28;1.42;;;0.85;;
13386;SDS011;6763;48.524;9.044;2023-01-13T16:13:54;1.17;;;0.98;;
13386;SDS011;6763;48.524;9.044;2023-01-13T16:16:21;2.63;;;1.25;;
13386;SDS011;6763;48.524;9.044;2023-01-13T16:18:51;1.17;;;0.90;;
13386;SDS011;6763;48.524;9.044;2023-01-13T16:21:18;0.57;;;0.57;;
13386;SDS011;6763;48.524;9.044;2023-01-13T16:23:44;0.50;;;0.50;;
13386;SDS011;6763;48.524;9.044;2023-01-13T16:26:13;0.73;;;0.68;;
13386;SDS011;6763;48.524;9.044;2023-01-13T16:28:42;1.15;;;0.77;;
13386;SDS011;6763;48.524;9.044;2023-01-13T16:31:15;1.27;;;0.80;;
13386;SDS011;6763;48.524;9.044;2023-01-13T16:33:42;0.75;;;0.70;;
13386;SDS011;6763;48.524;9.044;2023-01-13T16:36:14;8.07;;;0.90;;
13386;SDS011;6763;48.524;9.044;2023-01-13T16:38:44;1.55;;;0.63;;
13386;SDS011;6763;48.524;9.044;2023-01-13T16:41:10;1.33;;;1.00;;
13386;SDS011;6763;48.524;9.044;2023-01-13T16:43:35;1.38;;;1.10;;
13386;SDS011;6763;48.524;9.044;2023-01-13T16:46:04;4.05;;;0.80;;
13386;SDS011;6763;48.524;9.044;2023-01-13T16:48:42;0.88;;;0.88;;
13386;SDS011;6763;48.524;9.044;2023-01-13T16:51:07;2.30;;;1.30;;
13386;SDS011;6763;48.524;9.044;2023-01-13T16:53:32;2.03;;;1.15;;
13386;SDS011;6763;48.524;9.044;2023-01-13T16:55:58;1.30;;;1.20;;
13386;SDS011;6763;48.524;9.044;2023-01-13T16:58:23;6.38;;;1.67;;
13386;SDS011;6763;48.524;9.044;2023-01-13T17:00:48;1.70;;;1.60;;
13386;SDS011;6763;48.524;9.044;2023-01-13T17:03:14;3.83;;;1.60;;
13386;SDS011;6763;48.524;9.044;2023-01-13T17:05:40;2.50;;;1.45;;
13386;SDS011;6763;48.524;9.044;2023-01-13T17:08:10;1.67;;;1.08;;
13386;SDS011;6763;48.524;9.044;2023-01-13T17:10:39;1.73;;;1.13;;
13386;SDS011;6763;48.524;9.044;2023-01-13T17:13:04;1.52;;;1.13;;
13386;SDS011;6763;48.524;9.044;2023-01-13T17:15:30;0.60;;;0.60;;
13386;SDS011;6763;48.524;9.044;2023-01-13T17:17:58;0.70;;;0.70;;
13386;SDS011;6763;48.524;9.044;2023-01-13T17:20:23;5.57;;;0.93;;
13386;SDS011;6763;48.524;9.044;2023-01-13T17:22:48;0.75;;;0.75;;
13386;SDS011;6763;48.524;9.044;2023-01-13T17:25:14;2.00;;;0.93;;
13386;SDS011;6763;48.524;9.044;2023-01-13T17:27:39;3.10;;;0.82;;
13386;SDS011;6763;48.524;9.044;2023-01-13T17:30:06;2.80;;;0.90;;
13386;SDS011;6763;48.524;9.044;2023-01-13T17:32:32;0.70;;;0.70;;
13386;SDS011;6763;48.524;9.044;2023-01-13T17:34:57;1.02;;;1.02;;
13386;SDS011;6763;48.524;9.044;2023-01-13T17:37:25;0.60;;;0.60;;
13386;SDS011;6763;48.524;9.044;2023-01-13T17:39:51;1.75;;;0.68;;
13386;SDS011;6763;48.524;9.044;2023-01-13T17:42:17;1.13;;;0.65;;